CYBB/YBB METAR and TAF weather

Enter ICAO airport designator
Station Type Date Time Source
CYBB METAR 2019/12/13 00:00 UTC NOAA

CYBB 130000Z 23022KT 6SM BLSN SKC M28/M31 A2971 RMK BLSN2 0.0/LAST STFD OBS/NXT 131300Z SLP066


Station Type Date Time Source
CYBB Decoded METAR 2019/12/13 00:00 UTC NOAA

Pelly Bay Airport, Canada (CYBB) 68-32N 089-49W
Dec 12, 2019 - 07:00 PM EST / 2019.12.13 0000 UTC
Wind: from the SW (230 degrees) at 25 MPH (22 KT):0
Visibility: 6 mile(s):0
Sky conditions: clear
Weather: blowing snow
Temperature: -18 F (-28 C)
Windchill: -49 F (-45 C):2
Dew Point: -23 F (-31 C)
Relative Humidity: 75%
Pressure (altimeter): 29.71 in. Hg (1006 hPa)
ob: CYBB 130000Z 23022KT 6SM BLSN SKC M28/M31 A2971 RMK BLSN2 0.0/LAST STFD OBS/NXT 131300Z SLP066
cycle: 0

Station Type Date Time Source
CYBB TAF 2019/12/12 23:42 UTC NOAA

TAF
AMD TAF
AMD CYBB 122339Z 1223/1224 23020KT P6SM FEW025
TEMPO 1223/1224 2SM BLSN
RMK NXT FCST WILL BE ISSUED AT 131445Z

Example: see airport list